FR-0224 weather

Flaine-Hiver Heliport
Flaine, Rhône Alpes, France

Public forecast

Using degrees Celsius for public forecast. Weather courtesy of forecast.io.

METAR (pilot weather report)

Closest report is Annecy-Haute-Savoie-Mont Blanc Airport, 24.8 nm (45.9 km) W. Retrieved 2019/07/22 09:30 UTC (0 seconds ago):

LFLP 220930Z AUTO VRB04KT CAVOK 28/16 Q1024 NOSIG

TAF (pilot weather forecast)

Closest forecast is Annecy-Haute-Savoie-Mont Blanc Airport, 24.8 nm (45.9 km) W. Retrieved 2019/07/22 09:00 UTC (19 minutes ago):

TAF LFLP 220800Z 2209/2309 VRB02KT CAVOK BECMG 2210/2212 33007KT BECMG 2220/2222 VRB03KT